sensor_id;sensor_type;location;lat;lon;timestamp;P1;durP1;ratioP1;P2;durP2;ratioP2
7745;SDS011;3917;42.748;23.278;2022-07-29T00:00:04;20.95;;;14.10;;
7745;SDS011;3917;42.748;23.278;2022-07-29T00:02:32;21.17;;;14.45;;
7745;SDS011;3917;42.748;23.278;2022-07-29T00:04:59;22.25;;;15.55;;
7745;SDS011;3917;42.748;23.278;2022-07-29T00:07:27;17.33;;;15.43;;
7745;SDS011;3917;42.748;23.278;2022-07-29T00:09:54;20.73;;;16.13;;
7745;SDS011;3917;42.748;23.278;2022-07-29T00:12:21;22.35;;;15.95;;
7745;SDS011;3917;42.748;23.278;2022-07-29T00:14:51;18.00;;;16.02;;
7745;SDS011;3917;42.748;23.278;2022-07-29T00:17:18;21.40;;;16.08;;
7745;SDS011;3917;42.748;23.278;2022-07-29T00:19:45;20.70;;;17.35;;
7745;SDS011;3917;42.748;23.278;2022-07-29T00:22:11;21.73;;;17.80;;
7745;SDS011;3917;42.748;23.278;2022-07-29T00:24:39;18.70;;;16.77;;
7745;SDS011;3917;42.748;23.278;2022-07-29T00:27:06;20.30;;;16.80;;
7745;SDS011;3917;42.748;23.278;2022-07-29T00:29:33;22.80;;;16.20;;
7745;SDS011;3917;42.748;23.278;2022-07-29T00:32:00;18.88;;;16.25;;
7745;SDS011;3917;42.748;23.278;2022-07-29T00:34:27;24.33;;;16.65;;
7745;SDS011;3917;42.748;23.278;2022-07-29T00:37:11;19.17;;;17.03;;
7745;SDS011;3917;42.748;23.278;2022-07-29T00:39:39;20.65;;;16.88;;
7745;SDS011;3917;42.748;23.278;2022-07-29T00:42:06;19.55;;;17.17;;
7745;SDS011;3917;42.748;23.278;2022-07-29T00:44:35;21.42;;;17.65;;
7745;SDS011;3917;42.748;23.278;2022-07-29T00:47:03;20.58;;;16.98;;
7745;SDS011;3917;42.748;23.278;2022-07-29T00:49:30;18.80;;;16.77;;
7745;SDS011;3917;42.748;23.278;2022-07-29T00:51:57;21.77;;;17.35;;
7745;SDS011;3917;42.748;23.278;2022-07-29T00:54:24;20.75;;;16.65;;
7745;SDS011;3917;42.748;23.278;2022-07-29T00:56:53;20.05;;;17.25;;
7745;SDS011;3917;42.748;23.278;2022-07-29T00:59:20;20.90;;;16.67;;
7745;SDS011;3917;42.748;23.278;2022-07-29T01:01:47;20.08;;;16.90;;
7745;SDS011;3917;42.748;23.278;2022-07-29T01:04:13;19.45;;;17.23;;
7745;SDS011;3917;42.748;23.278;2022-07-29T01:06:40;20.13;;;16.60;;
7745;SDS011;3917;42.748;23.278;2022-07-29T01:09:09;20.02;;;17.65;;
7745;SDS011;3917;42.748;23.278;2022-07-29T01:11:37;21.67;;;16.63;;
7745;SDS011;3917;42.748;23.278;2022-07-29T01:14:06;19.13;;;16.42;;
7745;SDS011;3917;42.748;23.278;2022-07-29T01:16:35;19.58;;;17.52;;
7745;SDS011;3917;42.748;23.278;2022-07-29T01:19:13;27.70;;;17.90;;
7745;SDS011;3917;42.748;23.278;2022-07-29T01:21:55;24.10;;;17.20;;
7745;SDS011;3917;42.748;23.278;2022-07-29T01:24:30;29.08;;;17.20;;
7745;SDS011;3917;42.748;23.278;2022-07-29T01:27:09;26.35;;;17.00;;
7745;SDS011;3917;42.748;23.278;2022-07-29T01:29:54;20.60;;;18.40;;
7745;SDS011;3917;42.748;23.278;2022-07-29T01:32:24;25.42;;;17.65;;
7745;SDS011;3917;42.748;23.278;2022-07-29T01:34:54;21.33;;;17.38;;
7745;SDS011;3917;42.748;23.278;2022-07-29T01:37:26;20.05;;;16.30;;
7745;SDS011;3917;42.748;23.278;2022-07-29T01:39:56;22.30;;;17.42;;
7745;SDS011;3917;42.748;23.278;2022-07-29T01:42:26;19.58;;;16.23;;
7745;SDS011;3917;42.748;23.278;2022-07-29T01:45:00;25.90;;;17.35;;
7745;SDS011;3917;42.748;23.278;2022-07-29T01:47:33;19.65;;;17.55;;
7745;SDS011;3917;42.748;23.278;2022-07-29T01:50:09;27.23;;;18.17;;
7745;SDS011;3917;42.748;23.278;2022-07-29T01:52:39;22.50;;;18.02;;
7745;SDS011;3917;42.748;23.278;2022-07-29T01:55:12;23.33;;;17.05;;
7745;SDS011;3917;42.748;23.278;2022-07-29T01:57:42;22.52;;;18.40;;
7745;SDS011;3917;42.748;23.278;2022-07-29T02:00:14;20.42;;;17.67;;
7745;SDS011;3917;42.748;23.278;2022-07-29T02:02:42;19.65;;;17.60;;
7745;SDS011;3917;42.748;23.278;2022-07-29T02:05:12;20.60;;;18.20;;
7745;SDS011;3917;42.748;23.278;2022-07-29T02:07:43;22.48;;;17.17;;
7745;SDS011;3917;42.748;23.278;2022-07-29T02:10:12;20.50;;;18.27;;
7745;SDS011;3917;42.748;23.278;2022-07-29T02:12:40;20.70;;;18.50;;
7745;SDS011;3917;42.748;23.278;2022-07-29T02:15:10;24.52;;;17.25;;
7745;SDS011;3917;42.748;23.278;2022-07-29T02:17:41;23.58;;;17.38;;
7745;SDS011;3917;42.748;23.278;2022-07-29T02:20:11;24.20;;;17.98;;
7745;SDS011;3917;42.748;23.278;2022-07-29T02:22:39;24.60;;;18.25;;
7745;SDS011;3917;42.748;23.278;2022-07-29T02:25:08;23.70;;;18.33;;
7745;SDS011;3917;42.748;23.278;2022-07-29T02:27:36;21.05;;;17.67;;
7745;SDS011;3917;42.748;23.278;2022-07-29T02:30:06;23.55;;;18.77;;
7745;SDS011;3917;42.748;23.278;2022-07-29T02:32:36;22.95;;;18.30;;
7745;SDS011;3917;42.748;23.278;2022-07-29T02:35:06;24.00;;;17.80;;
7745;SDS011;3917;42.748;23.278;2022-07-29T02:37:34;25.65;;;19.85;;
7745;SDS011;3917;42.748;23.278;2022-07-29T02:40:02;24.65;;;19.08;;
7745;SDS011;3917;42.748;23.278;2022-07-29T02:42:32;22.08;;;18.15;;
7745;SDS011;3917;42.748;23.278;2022-07-29T02:45:00;30.73;;;18.90;;
7745;SDS011;3917;42.748;23.278;2022-07-29T02:47:27;25.98;;;18.80;;
7745;SDS011;3917;42.748;23.278;2022-07-29T02:50:04;27.73;;;20.38;;
7745;SDS011;3917;42.748;23.278;2022-07-29T02:55:06;26.50;;;21.35;;
7745;SDS011;3917;42.748;23.278;2022-07-29T02:57:41;24.70;;;21.35;;
7745;SDS011;3917;42.748;23.278;2022-07-29T03:00:10;25.77;;;20.38;;
7745;SDS011;3917;42.748;23.278;2022-07-29T03:02:39;24.45;;;19.85;;
7745;SDS011;3917;42.748;23.278;2022-07-29T03:05:12;24.10;;;21.42;;
7745;SDS011;3917;42.748;23.278;2022-07-29T03:07:43;27.83;;;21.90;;
7745;SDS011;3917;42.748;23.278;2022-07-29T03:10:13;26.77;;;21.77;;
7745;SDS011;3917;42.748;23.278;2022-07-29T03:12:41;31.10;;;22.95;;
7745;SDS011;3917;42.748;23.278;2022-07-29T03:15:09;30.85;;;21.90;;
7745;SDS011;3917;42.748;23.278;2022-07-29T03:17:37;37.60;;;22.70;;
7745;SDS011;3917;42.748;23.278;2022-07-29T03:20:06;27.95;;;22.10;;
7745;SDS011;3917;42.748;23.278;2022-07-29T03:22:37;27.95;;;21.45;;
7745;SDS011;3917;42.748;23.278;2022-07-29T03:25:08;30.35;;;21.92;;
7745;SDS011;3917;42.748;23.278;2022-07-29T03:27:35;32.17;;;21.42;;
7745;SDS011;3917;42.748;23.278;2022-07-29T03:30:03;25.00;;;20.48;;
7745;SDS011;3917;42.748;23.278;2022-07-29T03:32:30;24.15;;;19.90;;
7745;SDS011;3917;42.748;23.278;2022-07-29T03:34:57;23.33;;;19.88;;
7745;SDS011;3917;42.748;23.278;2022-07-29T03:37:24;32.25;;;21.10;;
7745;SDS011;3917;42.748;23.278;2022-07-29T03:39:52;35.70;;;22.50;;
7745;SDS011;3917;42.748;23.278;2022-07-29T03:42:23;33.30;;;21.02;;
7745;SDS011;3917;42.748;23.278;2022-07-29T03:44:53;37.42;;;21.95;;
7745;SDS011;3917;42.748;23.278;2022-07-29T03:47:22;29.50;;;18.90;;
7745;SDS011;3917;42.748;23.278;2022-07-29T03:49:52;31.50;;;20.88;;
7745;SDS011;3917;42.748;23.278;2022-07-29T03:52:23;33.88;;;20.65;;
7745;SDS011;3917;42.748;23.278;2022-07-29T03:54:51;26.58;;;19.75;;
7745;SDS011;3917;42.748;23.278;2022-07-29T03:57:19;20.27;;;18.15;;
7745;SDS011;3917;42.748;23.278;2022-07-29T03:59:50;22.58;;;17.88;;
7745;SDS011;3917;42.748;23.278;2022-07-29T04:02:17;24.10;;;16.70;;
7745;SDS011;3917;42.748;23.278;2022-07-29T04:04:45;18.45;;;16.48;;
7745;SDS011;3917;42.748;23.278;2022-07-29T04:07:12;19.35;;;15.73;;
7745;SDS011;3917;42.748;23.278;2022-07-29T04:09:39;21.40;;;14.57;;
7745;SDS011;3917;42.748;23.278;2022-07-29T04:12:08;16.45;;;14.02;;
7745;SDS011;3917;42.748;23.278;2022-07-29T04:14:35;20.83;;;11.38;;
7745;SDS011;3917;42.748;23.278;2022-07-29T04:17:03;14.73;;;11.98;;
7745;SDS011;3917;42.748;23.278;2022-07-29T04:19:30;14.07;;;11.57;;
7745;SDS011;3917;42.748;23.278;2022-07-29T04:21:58;20.00;;;11.93;;
7745;SDS011;3917;42.748;23.278;2022-07-29T04:24:25;13.18;;;11.57;;
7745;SDS011;3917;42.748;23.278;2022-07-29T04:26:52;13.07;;;11.35;;
7745;SDS011;3917;42.748;23.278;2022-07-29T04:29:20;13.98;;;11.50;;
7745;SDS011;3917;42.748;23.278;2022-07-29T04:31:47;14.38;;;12.05;;
7745;SDS011;3917;42.748;23.278;2022-07-29T04:34:14;17.67;;;12.35;;
7745;SDS011;3917;42.748;23.278;2022-07-29T04:36:41;18.77;;;12.48;;
7745;SDS011;3917;42.748;23.278;2022-07-29T04:39:08;16.33;;;12.88;;
7745;SDS011;3917;42.748;23.278;2022-07-29T04:41:35;20.70;;;14.27;;
7745;SDS011;3917;42.748;23.278;2022-07-29T04:44:02;18.38;;;14.70;;
7745;SDS011;3917;42.748;23.278;2022-07-29T04:46:31;21.98;;;12.55;;
7745;SDS011;3917;42.748;23.278;2022-07-29T04:48:58;15.80;;;12.25;;
7745;SDS011;3917;42.748;23.278;2022-07-29T04:51:25;17.45;;;13.20;;
7745;SDS011;3917;42.748;23.278;2022-07-29T04:53:52;24.20;;;16.58;;
7745;SDS011;3917;42.748;23.278;2022-07-29T04:56:19;18.08;;;15.32;;
7745;SDS011;3917;42.748;23.278;2022-07-29T04:58:46;25.33;;;15.93;;
7745;SDS011;3917;42.748;23.278;2022-07-29T05:01:13;18.30;;;15.82;;
7745;SDS011;3917;42.748;23.278;2022-07-29T05:03:42;21.23;;;17.95;;
7745;SDS011;3917;42.748;23.278;2022-07-29T05:06:09;20.70;;;17.27;;
7745;SDS011;3917;42.748;23.278;2022-07-29T05:08:37;20.80;;;16.45;;
7745;SDS011;3917;42.748;23.278;2022-07-29T05:11:04;25.30;;;17.45;;
7745;SDS011;3917;42.748;23.278;2022-07-29T05:13:31;23.55;;;17.50;;
7745;SDS011;3917;42.748;23.278;2022-07-29T05:15:58;24.25;;;16.58;;
7745;SDS011;3917;42.748;23.278;2022-07-29T05:18:25;23.92;;;15.93;;
7745;SDS011;3917;42.748;23.278;2022-07-29T05:20:53;23.20;;;16.10;;
7745;SDS011;3917;42.748;23.278;2022-07-29T05:23:20;17.02;;;15.23;;
7745;SDS011;3917;42.748;23.278;2022-07-29T05:25:47;17.63;;;15.80;;
7745;SDS011;3917;42.748;23.278;2022-07-29T05:28:16;22.30;;;16.05;;
7745;SDS011;3917;42.748;23.278;2022-07-29T05:30:45;22.95;;;16.13;;
7745;SDS011;3917;42.748;23.278;2022-07-29T05:33:16;24.98;;;16.40;;
7745;SDS011;3917;42.748;23.278;2022-07-29T05:35:42;24.50;;;17.15;;
7745;SDS011;3917;42.748;23.278;2022-07-29T05:38:11;23.33;;;16.95;;
7745;SDS011;3917;42.748;23.278;2022-07-29T05:40:39;31.15;;;16.65;;
7745;SDS011;3917;42.748;23.278;2022-07-29T05:43:09;22.63;;;15.18;;
7745;SDS011;3917;42.748;23.278;2022-07-29T05:45:36;19.48;;;15.63;;
7745;SDS011;3917;42.748;23.278;2022-07-29T05:48:05;25.35;;;14.93;;
7745;SDS011;3917;42.748;23.278;2022-07-29T05:50:34;24.67;;;15.73;;
7745;SDS011;3917;42.748;23.278;2022-07-29T05:53:01;22.33;;;14.27;;
7745;SDS011;3917;42.748;23.278;2022-07-29T05:55:29;24.27;;;14.10;;
7745;SDS011;3917;42.748;23.278;2022-07-29T05:57:58;23.65;;;13.05;;
7745;SDS011;3917;42.748;23.278;2022-07-29T06:00:25;24.52;;;13.98;;
7745;SDS011;3917;42.748;23.278;2022-07-29T06:02:51;14.25;;;12.77;;
7745;SDS011;3917;42.748;23.278;2022-07-29T06:05:18;19.55;;;13.05;;
7745;SDS011;3917;42.748;23.278;2022-07-29T06:07:45;17.33;;;12.48;;
7745;SDS011;3917;42.748;23.278;2022-07-29T06:10:12;15.23;;;12.02;;
7745;SDS011;3917;42.748;23.278;2022-07-29T06:12:40;21.73;;;13.20;;
7745;SDS011;3917;42.748;23.278;2022-07-29T06:15:07;25.98;;;12.95;;
7745;SDS011;3917;42.748;23.278;2022-07-29T06:17:37;29.75;;;12.30;;
7745;SDS011;3917;42.748;23.278;2022-07-29T06:20:04;24.63;;;12.60;;
7745;SDS011;3917;42.748;23.278;2022-07-29T06:22:32;26.90;;;12.27;;
7745;SDS011;3917;42.748;23.278;2022-07-29T06:24:59;17.77;;;12.63;;
7745;SDS011;3917;42.748;23.278;2022-07-29T06:27:33;21.63;;;14.80;;
7745;SDS011;3917;42.748;23.278;2022-07-29T06:30:21;18.33;;;11.88;;
7745;SDS011;3917;42.748;23.278;2022-07-29T06:32:48;15.45;;;12.55;;
7745;SDS011;3917;42.748;23.278;2022-07-29T06:35:15;20.40;;;12.15;;
7745;SDS011;3917;42.748;23.278;2022-07-29T06:37:42;20.48;;;12.38;;
7745;SDS011;3917;42.748;23.278;2022-07-29T06:40:09;20.60;;;13.32;;
7745;SDS011;3917;42.748;23.278;2022-07-29T06:42:54;22.80;;;12.98;;
7745;SDS011;3917;42.748;23.278;2022-07-29T06:45:22;31.15;;;13.77;;
7745;SDS011;3917;42.748;23.278;2022-07-29T06:47:52;16.95;;;13.15;;
7745;SDS011;3917;42.748;23.278;2022-07-29T06:50:20;15.35;;;12.85;;
7745;SDS011;3917;42.748;23.278;2022-07-29T06:52:47;17.25;;;13.20;;
7745;SDS011;3917;42.748;23.278;2022-07-29T06:55:14;17.52;;;12.20;;
7745;SDS011;3917;42.748;23.278;2022-07-29T06:57:41;15.65;;;12.05;;
7745;SDS011;3917;42.748;23.278;2022-07-29T07:00:15;15.10;;;11.80;;
7745;SDS011;3917;42.748;23.278;2022-07-29T07:02:43;20.88;;;11.80;;
7745;SDS011;3917;42.748;23.278;2022-07-29T07:05:10;14.85;;;8.85;;
7745;SDS011;3917;42.748;23.278;2022-07-29T07:07:37;10.25;;;7.30;;
7745;SDS011;3917;42.748;23.278;2022-07-29T07:10:07;16.25;;;7.68;;
7745;SDS011;3917;42.748;23.278;2022-07-29T07:12:34;10.95;;;7.25;;
7745;SDS011;3917;42.748;23.278;2022-07-29T07:15:03;9.10;;;5.07;;
7745;SDS011;3917;42.748;23.278;2022-07-29T07:17:31;3.85;;;2.28;;
7745;SDS011;3917;42.748;23.278;2022-07-29T07:20:01;3.72;;;2.47;;
7745;SDS011;3917;42.748;23.278;2022-07-29T07:22:29;4.80;;;2.92;;
7745;SDS011;3917;42.748;23.278;2022-07-29T07:24:56;2.70;;;2.47;;
7745;SDS011;3917;42.748;23.278;2022-07-29T07:27:23;2.58;;;2.35;;
7745;SDS011;3917;42.748;23.278;2022-07-29T07:29:50;6.65;;;3.15;;
7745;SDS011;3917;42.748;23.278;2022-07-29T07:32:17;4.72;;;2.63;;
7745;SDS011;3917;42.748;23.278;2022-07-29T07:34:44;8.70;;;3.08;;
7745;SDS011;3917;42.748;23.278;2022-07-29T07:37:12;3.10;;;2.75;;
7745;SDS011;3917;42.748;23.278;2022-07-29T07:39:39;2.95;;;2.28;;
7745;SDS011;3917;42.748;23.278;2022-07-29T07:42:06;6.55;;;2.95;;
7745;SDS011;3917;42.748;23.278;2022-07-29T07:44:35;4.47;;;2.92;;
7745;SDS011;3917;42.748;23.278;2022-07-29T07:47:02;8.10;;;3.03;;
7745;SDS011;3917;42.748;23.278;2022-07-29T07:49:29;4.97;;;2.70;;
7745;SDS011;3917;42.748;23.278;2022-07-29T07:51:55;4.43;;;2.97;;
7745;SDS011;3917;42.748;23.278;2022-07-29T07:54:24;6.88;;;2.95;;
7745;SDS011;3917;42.748;23.278;2022-07-29T07:56:50;3.72;;;2.78;;
7745;SDS011;3917;42.748;23.278;2022-07-29T07:59:17;4.70;;;2.55;;
7745;SDS011;3917;42.748;23.278;2022-07-29T08:01:44;3.03;;;2.72;;
7745;SDS011;3917;42.748;23.278;2022-07-29T08:04:11;5.78;;;3.03;;
7745;SDS011;3917;42.748;23.278;2022-07-29T08:06:38;4.50;;;2.67;;
7745;SDS011;3917;42.748;23.278;2022-07-29T08:09:05;7.50;;;2.90;;
7745;SDS011;3917;42.748;23.278;2022-07-29T08:11:33;6.82;;;2.88;;
7745;SDS011;3917;42.748;23.278;2022-07-29T08:14:00;5.75;;;2.63;;
7745;SDS011;3917;42.748;23.278;2022-07-29T08:16:27;3.47;;;2.40;;
7745;SDS011;3917;42.748;23.278;2022-07-29T08:18:54;3.33;;;3.03;;
7745;SDS011;3917;42.748;23.278;2022-07-29T08:21:22;5.88;;;2.90;;
7745;SDS011;3917;42.748;23.278;2022-07-29T08:23:50;5.25;;;2.50;;
7745;SDS011;3917;42.748;23.278;2022-07-29T08:26:39;5.30;;;2.55;;
7745;SDS011;3917;42.748;23.278;2022-07-29T08:29:06;3.65;;;2.40;;
7745;SDS011;3917;42.748;23.278;2022-07-29T08:31:34;3.45;;;2.63;;
7745;SDS011;3917;42.748;23.278;2022-07-29T08:34:01;5.47;;;2.88;;
7745;SDS011;3917;42.748;23.278;2022-07-29T08:36:29;6.80;;;2.60;;
7745;SDS011;3917;42.748;23.278;2022-07-29T08:38:56;7.97;;;2.95;;
7745;SDS011;3917;42.748;23.278;2022-07-29T08:41:22;5.85;;;2.70;;
7745;SDS011;3917;42.748;23.278;2022-07-29T08:43:51;4.00;;;2.88;;
7745;SDS011;3917;42.748;23.278;2022-07-29T08:46:19;5.18;;;2.80;;
7745;SDS011;3917;42.748;23.278;2022-07-29T08:48:46;5.03;;;3.05;;
7745;SDS011;3917;42.748;23.278;2022-07-29T08:51:17;4.43;;;2.80;;
7745;SDS011;3917;42.748;23.278;2022-07-29T08:53:46;4.95;;;2.45;;
7745;SDS011;3917;42.748;23.278;2022-07-29T08:56:14;4.45;;;2.35;;
7745;SDS011;3917;42.748;23.278;2022-07-29T08:58:41;3.22;;;2.40;;
7745;SDS011;3917;42.748;23.278;2022-07-29T09:01:10;13.73;;;2.65;;
7745;SDS011;3917;42.748;23.278;2022-07-29T09:03:38;7.55;;;2.70;;
7745;SDS011;3917;42.748;23.278;2022-07-29T09:06:06;6.13;;;2.75;;
7745;SDS011;3917;42.748;23.278;2022-07-29T09:08:34;8.13;;;2.42;;
7745;SDS011;3917;42.748;23.278;2022-07-29T09:11:01;3.75;;;2.30;;
7745;SDS011;3917;42.748;23.278;2022-07-29T09:13:28;5.00;;;2.38;;
7745;SDS011;3917;42.748;23.278;2022-07-29T09:15:55;6.63;;;2.60;;
7745;SDS011;3917;42.748;23.278;2022-07-29T09:18:36;9.10;;;2.53;;
7745;SDS011;3917;42.748;23.278;2022-07-29T09:21:04;3.83;;;2.40;;
7745;SDS011;3917;42.748;23.278;2022-07-29T09:24:03;2.38;;;2.28;;
7745;SDS011;3917;42.748;23.278;2022-07-29T09:26:33;3.13;;;2.55;;
7745;SDS011;3917;42.748;23.278;2022-07-29T09:29:07;3.80;;;2.63;;
7745;SDS011;3917;42.748;23.278;2022-07-29T09:31:39;4.60;;;2.42;;
7745;SDS011;3917;42.748;23.278;2022-07-29T09:34:09;5.55;;;2.45;;
7745;SDS011;3917;42.748;23.278;2022-07-29T09:36:40;4.00;;;2.80;;
7745;SDS011;3917;42.748;23.278;2022-07-29T09:39:07;2.35;;;2.15;;
7745;SDS011;3917;42.748;23.278;2022-07-29T09:41:48;3.42;;;2.28;;
7745;SDS011;3917;42.748;23.278;2022-07-29T09:44:18;6.32;;;2.55;;
7745;SDS011;3917;42.748;23.278;2022-07-29T09:46:52;6.45;;;2.88;;
7745;SDS011;3917;42.748;23.278;2022-07-29T09:49:22;2.65;;;2.20;;
7745;SDS011;3917;42.748;23.278;2022-07-29T09:51:58;6.75;;;2.40;;
7745;SDS011;3917;42.748;23.278;2022-07-29T09:54:26;9.02;;;2.90;;
7745;SDS011;3917;42.748;23.278;2022-07-29T09:56:54;5.57;;;3.33;;
7745;SDS011;3917;42.748;23.278;2022-07-29T09:59:21;5.32;;;2.55;;
7745;SDS011;3917;42.748;23.278;2022-07-29T10:01:51;3.45;;;2.70;;
7745;SDS011;3917;42.748;23.278;2022-07-29T10:04:18;3.38;;;2.50;;
7745;SDS011;3917;42.748;23.278;2022-07-29T10:09:30;3.50;;;2.60;;
7745;SDS011;3917;42.748;23.278;2022-07-29T10:12:04;5.22;;;2.80;;
7745;SDS011;3917;42.748;23.278;2022-07-29T10:14:33;6.63;;;2.70;;
7745;SDS011;3917;42.748;23.278;2022-07-29T10:17:00;7.22;;;2.72;;
7745;SDS011;3917;42.748;23.278;2022-07-29T10:19:28;3.92;;;2.70;;
7745;SDS011;3917;42.748;23.278;2022-07-29T10:21:56;8.07;;;3.03;;
7745;SDS011;3917;42.748;23.278;2022-07-29T10:24:26;4.95;;;2.55;;
7745;SDS011;3917;42.748;23.278;2022-07-29T10:26:53;4.97;;;2.92;;
7745;SDS011;3917;42.748;23.278;2022-07-29T10:29:21;4.88;;;2.53;;
7745;SDS011;3917;42.748;23.278;2022-07-29T10:31:50;6.25;;;2.90;;
7745;SDS011;3917;42.748;23.278;2022-07-29T10:34:30;3.63;;;2.30;;
7745;SDS011;3917;42.748;23.278;2022-07-29T10:37:10;5.50;;;2.40;;
7745;SDS011;3917;42.748;23.278;2022-07-29T10:39:52;8.70;;;2.72;;
7745;SDS011;3917;42.748;23.278;2022-07-29T10:42:25;4.72;;;2.40;;
7745;SDS011;3917;42.748;23.278;2022-07-29T10:44:55;7.07;;;2.53;;
7745;SDS011;3917;42.748;23.278;2022-07-29T10:47:23;2.55;;;2.35;;
7745;SDS011;3917;42.748;23.278;2022-07-29T10:49:57;4.53;;;2.67;;
7745;SDS011;3917;42.748;23.278;2022-07-29T10:52:26;8.60;;;3.10;;
7745;SDS011;3917;42.748;23.278;2022-07-29T10:58:16;4.38;;;3.05;;
7745;SDS011;3917;42.748;23.278;2022-07-29T11:00:44;8.15;;;3.08;;
7745;SDS011;3917;42.748;23.278;2022-07-29T11:06:09;3.47;;;2.83;;
7745;SDS011;3917;42.748;23.278;2022-07-29T11:08:35;3.35;;;3.05;;
7745;SDS011;3917;42.748;23.278;2022-07-29T11:14:05;6.03;;;3.17;;
7745;SDS011;3917;42.748;23.278;2022-07-29T11:19:31;4.72;;;3.20;;
7745;SDS011;3917;42.748;23.278;2022-07-29T11:21:58;2.83;;;2.63;;
7745;SDS011;3917;42.748;23.278;2022-07-29T11:24:26;3.08;;;2.88;;
7745;SDS011;3917;42.748;23.278;2022-07-29T11:27:11;11.20;;;2.90;;
7745;SDS011;3917;42.748;23.278;2022-07-29T11:29:47;4.03;;;2.63;;
7745;SDS011;3917;42.748;23.278;2022-07-29T11:32:16;3.45;;;2.60;;
7745;SDS011;3917;42.748;23.278;2022-07-29T11:34:45;3.65;;;3.22;;
7745;SDS011;3917;42.748;23.278;2022-07-29T11:37:18;3.67;;;2.83;;
7745;SDS011;3917;42.748;23.278;2022-07-29T11:40:12;3.28;;;2.97;;
7745;SDS011;3917;42.748;23.278;2022-07-29T11:42:54;4.15;;;3.13;;
7745;SDS011;3917;42.748;23.278;2022-07-29T11:45:22;4.00;;;3.47;;
7745;SDS011;3917;42.748;23.278;2022-07-29T11:47:54;5.07;;;3.83;;
7745;SDS011;3917;42.748;23.278;2022-07-29T11:50:29;3.85;;;3.55;;
7745;SDS011;3917;42.748;23.278;2022-07-29T11:53:57;4.32;;;3.17;;
7745;SDS011;3917;42.748;23.278;2022-07-29T11:59:55;4.50;;;3.72;;
7745;SDS011;3917;42.748;23.278;2022-07-29T12:02:24;6.43;;;3.63;;
7745;SDS011;3917;42.748;23.278;2022-07-29T12:04:51;3.60;;;3.22;;
7745;SDS011;3917;42.748;23.278;2022-07-29T12:07:18;3.70;;;3.40;;
7745;SDS011;3917;42.748;23.278;2022-07-29T12:09:49;9.57;;;3.78;;
7745;SDS011;3917;42.748;23.278;2022-07-29T12:12:16;6.47;;;4.00;;
7745;SDS011;3917;42.748;23.278;2022-07-29T12:14:43;4.95;;;3.53;;
7745;SDS011;3917;42.748;23.278;2022-07-29T12:17:26;5.80;;;3.88;;
7745;SDS011;3917;42.748;23.278;2022-07-29T12:19:53;4.53;;;3.67;;
7745;SDS011;3917;42.748;23.278;2022-07-29T12:22:27;5.88;;;3.80;;
7745;SDS011;3917;42.748;23.278;2022-07-29T12:25:00;5.95;;;4.00;;
7745;SDS011;3917;42.748;23.278;2022-07-29T12:27:28;4.32;;;3.78;;
7745;SDS011;3917;42.748;23.278;2022-07-29T12:29:58;6.38;;;3.50;;
7745;SDS011;3917;42.748;23.278;2022-07-29T12:32:32;4.63;;;3.53;;
7745;SDS011;3917;42.748;23.278;2022-07-29T12:35:00;6.18;;;4.10;;
7745;SDS011;3917;42.748;23.278;2022-07-29T12:37:29;4.55;;;4.20;;
7745;SDS011;3917;42.748;23.278;2022-07-29T12:39:56;4.38;;;3.97;;
7745;SDS011;3917;42.748;23.278;2022-07-29T12:42:23;4.72;;;4.22;;
7745;SDS011;3917;42.748;23.278;2022-07-29T12:44:50;4.60;;;4.30;;
7745;SDS011;3917;42.748;23.278;2022-07-29T12:47:18;5.00;;;4.25;;
7745;SDS011;3917;42.748;23.278;2022-07-29T12:49:47;4.20;;;3.83;;
7745;SDS011;3917;42.748;23.278;2022-07-29T12:52:25;4.35;;;4.05;;
7745;SDS011;3917;42.748;23.278;2022-07-29T12:54:55;4.57;;;4.18;;
7745;SDS011;3917;42.748;23.278;2022-07-29T12:57:23;4.72;;;4.03;;
7745;SDS011;3917;42.748;23.278;2022-07-29T13:00:04;5.13;;;4.45;;
7745;SDS011;3917;42.748;23.278;2022-07-29T13:02:34;8.95;;;4.38;;
7745;SDS011;3917;42.748;23.278;2022-07-29T13:05:11;7.38;;;4.65;;
7745;SDS011;3917;42.748;23.278;2022-07-29T13:07:38;7.28;;;4.60;;
7745;SDS011;3917;42.748;23.278;2022-07-29T13:10:13;6.80;;;4.55;;
7745;SDS011;3917;42.748;23.278;2022-07-29T13:13:03;7.00;;;4.50;;
7745;SDS011;3917;42.748;23.278;2022-07-29T13:15:31;4.90;;;4.40;;
7745;SDS011;3917;42.748;23.278;2022-07-29T13:17:59;5.15;;;4.15;;
7745;SDS011;3917;42.748;23.278;2022-07-29T13:20:31;4.10;;;3.80;;
7745;SDS011;3917;42.748;23.278;2022-07-29T13:22:58;5.30;;;4.80;;
7745;SDS011;3917;42.748;23.278;2022-07-29T13:25:27;5.10;;;4.38;;
7745;SDS011;3917;42.748;23.278;2022-07-29T13:27:55;6.85;;;4.57;;
7745;SDS011;3917;42.748;23.278;2022-07-29T13:30:22;6.50;;;4.30;;
7745;SDS011;3917;42.748;23.278;2022-07-29T13:32:52;5.15;;;4.40;;
7745;SDS011;3917;42.748;23.278;2022-07-29T13:35:23;4.68;;;4.38;;
7745;SDS011;3917;42.748;23.278;2022-07-29T13:37:52;5.05;;;4.18;;
7745;SDS011;3917;42.748;23.278;2022-07-29T13:40:18;8.32;;;4.40;;
7745;SDS011;3917;42.748;23.278;2022-07-29T13:42:45;4.85;;;4.45;;
7745;SDS011;3917;42.748;23.278;2022-07-29T13:45:12;4.28;;;3.85;;
7745;SDS011;3917;42.748;23.278;2022-07-29T13:47:39;6.38;;;3.80;;
7745;SDS011;3917;42.748;23.278;2022-07-29T13:50:07;3.67;;;3.47;;
7745;SDS011;3917;42.748;23.278;2022-07-29T13:52:35;13.70;;;4.97;;
7745;SDS011;3917;42.748;23.278;2022-07-29T13:55:05;4.63;;;4.15;;
7745;SDS011;3917;42.748;23.278;2022-07-29T13:57:35;5.30;;;4.25;;
7745;SDS011;3917;42.748;23.278;2022-07-29T14:00:01;5.68;;;4.25;;
7745;SDS011;3917;42.748;23.278;2022-07-29T14:02:29;8.65;;;4.20;;
7745;SDS011;3917;42.748;23.278;2022-07-29T14:04:56;5.93;;;4.10;;
7745;SDS011;3917;42.748;23.278;2022-07-29T14:07:23;6.03;;;3.80;;
7745;SDS011;3917;42.748;23.278;2022-07-29T14:09:49;4.30;;;3.97;;
7745;SDS011;3917;42.748;23.278;2022-07-29T14:12:18;5.28;;;4.00;;
7745;SDS011;3917;42.748;23.278;2022-07-29T14:14:45;9.68;;;4.10;;
7745;SDS011;3917;42.748;23.278;2022-07-29T14:17:12;6.78;;;4.65;;
7745;SDS011;3917;42.748;23.278;2022-07-29T14:19:39;9.55;;;4.35;;
7745;SDS011;3917;42.748;23.278;2022-07-29T14:22:06;5.53;;;3.67;;
7745;SDS011;3917;42.748;23.278;2022-07-29T14:24:35;4.78;;;4.35;;
7745;SDS011;3917;42.748;23.278;2022-07-29T14:27:02;10.30;;;4.43;;
7745;SDS011;3917;42.748;23.278;2022-07-29T14:29:30;5.28;;;4.30;;
7745;SDS011;3917;42.748;23.278;2022-07-29T14:31:57;5.70;;;4.32;;
7745;SDS011;3917;42.748;23.278;2022-07-29T14:34:24;7.00;;;4.25;;
7745;SDS011;3917;42.748;23.278;2022-07-29T14:36:51;5.18;;;4.10;;
7745;SDS011;3917;42.748;23.278;2022-07-29T14:39:20;5.50;;;4.32;;
7745;SDS011;3917;42.748;23.278;2022-07-29T14:41:48;6.85;;;4.63;;
7745;SDS011;3917;42.748;23.278;2022-07-29T14:44:15;8.20;;;4.50;;
7745;SDS011;3917;42.748;23.278;2022-07-29T14:46:43;5.07;;;4.40;;
7745;SDS011;3917;42.748;23.278;2022-07-29T14:49:10;9.90;;;4.80;;
7745;SDS011;3917;42.748;23.278;2022-07-29T14:51:36;7.15;;;4.60;;
7745;SDS011;3917;42.748;23.278;2022-07-29T14:54:03;9.95;;;4.90;;
7745;SDS011;3917;42.748;23.278;2022-07-29T14:56:30;4.88;;;4.25;;
7745;SDS011;3917;42.748;23.278;2022-07-29T14:58:57;7.68;;;4.22;;
7745;SDS011;3917;42.748;23.278;2022-07-29T15:01:24;6.00;;;4.05;;
7745;SDS011;3917;42.748;23.278;2022-07-29T15:03:52;5.55;;;3.92;;
7745;SDS011;3917;42.748;23.278;2022-07-29T15:06:19;4.63;;;4.20;;
7745;SDS011;3917;42.748;23.278;2022-07-29T15:08:46;4.68;;;4.28;;
7745;SDS011;3917;42.748;23.278;2022-07-29T15:11:13;4.75;;;4.07;;
7745;SDS011;3917;42.748;23.278;2022-07-29T15:13:39;7.50;;;4.53;;
7745;SDS011;3917;42.748;23.278;2022-07-29T15:16:06;7.95;;;4.10;;
7745;SDS011;3917;42.748;23.278;2022-07-29T15:18:34;5.28;;;4.00;;
7745;SDS011;3917;42.748;23.278;2022-07-29T15:21:04;4.63;;;4.25;;